Time;durP1;ratioP1;P1;durP2;ratioP2;P2;SDS_P1;SDS_P2;PMS_P1;PMS_P2;Temp;Humidity;BMP_temperature;BMP_pressure;BME280_temperature;BME280_humidity;BME280_pressure;Samples;Min_cycle;Max_cycle;Signal;HPM_P1;HPM_P2
2022/01/01 00:00:33;;;;;;;11.63;7.95;;;12.80;92.20;;;;;;6135643;22;20024;-79
2022/01/01 00:03:00;;;;;;;12.10;7.68;;;12.70;92.20;;;;;;6133733;23;20070;-79
2022/01/01 00:05:27;;;;;;;10.45;6.80;;;12.70;92.20;;;;;;6134011;23;20021;-80
2022/01/01 00:07:53;;;;;;;9.57;6.28;;;12.70;92.20;;;;;;6132829;23;20014;-80
2022/01/01 00:10:20;;;;;;;10.68;6.85;;;12.70;92.10;;;;;;6138652;23;20006;-79
2022/01/01 00:12:47;;;;;;;13.52;6.93;;;12.70;92.10;;;;;;6131980;23;20014;-79
2022/01/01 00:15:14;;;;;;;9.27;6.18;;;12.80;92.20;;;;;;6134899;23;20070;-79
2022/01/01 00:17:40;;;;;;;9.98;6.85;;;12.70;92.10;;;;;;6133679;23;20422;-80
2022/01/01 00:20:09;;;;;;;11.27;6.68;;;12.70;92.40;;;;;;6109034;23;19998;-79
2022/01/01 00:22:36;;;;;;;10.52;7.43;;;12.80;92.10;;;;;;6132648;23;20003;-79
2022/01/01 00:25:02;;;;;;;11.77;7.53;;;12.70;92.10;;;;;;6130134;23;20002;-79
2022/01/01 00:27:28;;;;;;;13.57;7.55;;;12.70;92.10;;;;;;6108461;23;20437;-79
2022/01/01 00:29:54;;;;;;;11.63;7.47;;;12.80;92.10;;;;;;6107898;23;20002;-80
2022/01/01 00:32:19;;;;;;;14.07;8.93;;;12.80;92.10;;;;;;6137097;22;20030;-79
2022/01/01 00:34:45;;;;;;;11.85;7.80;;;12.70;92.10;;;;;;6138263;22;20009;-80
2022/01/01 00:37:11;;;;;;;12.75;8.18;;;12.70;92.10;;;;;;6137095;23;20052;-80
2022/01/01 00:39:36;;;;;;;15.52;8.85;;;12.80;92.10;;;;;;6136400;23;20002;-79
2022/01/01 00:42:03;;;;;;;13.85;8.25;;;12.70;92.10;;;;;;6137604;23;20005;-79
2022/01/01 00:44:32;;;;;;;11.82;7.68;;;12.70;92.10;;;;;;6111160;23;20017;-79
2022/01/01 00:46:58;;;;;;;12.60;7.93;;;12.70;92.10;;;;;;6111675;23;20002;-80
2022/01/01 00:49:24;;;;;;;13.00;7.90;;;12.70;92.10;;;;;;6139323;23;20048;-79
2022/01/01 00:51:50;;;;;;;13.68;8.35;;;12.70;92.10;;;;;;6109634;23;20017;-79
2022/01/01 00:54:16;;;;;;;12.23;8.27;;;12.70;92.10;;;;;;6137245;23;20010;-79
2022/01/01 00:56:42;;;;;;;11.45;7.55;;;12.70;92.10;;;;;;6137649;23;19998;-80
2022/01/01 00:59:07;;;;;;;14.82;8.30;;;12.70;92.10;;;;;;6139342;22;20073;-79
2022/01/01 01:01:39;;;;;;;12.60;7.93;;;12.70;92.10;;;;;;6136550;23;19983;-79
2022/01/01 01:04:05;;;;;;;15.88;8.90;;;12.70;92.10;;;;;;6142618;22;20005;-79
2022/01/01 01:06:31;;;;;;;13.18;7.45;;;12.70;92.10;;;;;;6138876;23;20081;-80
2022/01/01 01:08:59;;;;;;;12.02;8.40;;;12.70;92.10;;;;;;6141056;22;20005;-79
2022/01/01 01:11:26;;;;;;;12.73;8.27;;;12.70;92.20;;;;;;6142508;22;19986;-80
2022/01/01 01:14:00;;;;;;;15.30;9.43;;;12.70;92.20;;;;;;6139627;22;20014;-80
2022/01/01 01:16:27;;;;;;;14.20;9.60;;;12.60;92.10;;;;;;6142243;23;19998;-80
2022/01/01 01:18:54;;;;;;;18.58;11.48;;;12.70;92.20;;;;;;6139937;22;20006;-79
2022/01/01 01:21:22;;;;;;;19.27;11.88;;;12.70;92.20;;;;;;6143860;22;20492;-79
2022/01/01 01:23:49;;;;;;;16.63;10.82;;;12.60;92.10;;;;;;6139878;22;20010;-80
2022/01/01 01:26:15;;;;;;;19.42;12.13;;;12.60;92.10;;;;;;6139834;23;20002;-80
2022/01/01 01:28:47;;;;;;;16.17;10.40;;;12.60;92.20;;;;;;6144086;22;20009;-80
2022/01/01 01:31:13;;;;;;;15.13;9.32;;;12.60;92.20;;;;;;6142210;22;19993;-79
2022/01/01 01:33:38;;;;;;;13.10;9.07;;;12.60;92.20;;;;;;6136826;23;20037;-79
2022/01/01 01:36:04;;;;;;;12.05;8.38;;;12.60;92.20;;;;;;6134296;23;20022;-80
2022/01/01 01:38:36;;;;;;;12.40;8.18;;;12.60;92.20;;;;;;6160654;22;20002;-80
2022/01/01 01:41:03;;;;;;;14.15;8.48;;;12.60;92.20;;;;;;6136861;23;20009;-81
2022/01/01 01:43:29;;;;;;;13.02;8.95;;;12.70;92.30;;;;;;6138572;23;19990;-80
2022/01/01 01:45:55;;;;;;;13.82;8.80;;;12.50;92.20;;;;;;6139280;23;19998;-80
2022/01/01 01:48:20;;;;;;;13.75;9.10;;;12.50;92.20;;;;;;6140501;23;20063;-80
2022/01/01 01:50:46;;;;;;;15.45;9.27;;;12.60;92.30;;;;;;6088524;23;19994;-80
2022/01/01 01:53:12;;;;;;;16.02;9.23;;;12.50;92.20;;;;;;6109428;23;20497;-80
2022/01/01 01:55:38;;;;;;;14.68;9.73;;;12.50;92.20;;;;;;6131903;22;20334;-80
2022/01/01 01:58:04;;;;;;;12.63;8.60;;;12.50;92.30;;;;;;6111137;23;20077;-80
2022/01/01 02:03:12;;;;;;;12.63;8.32;;;12.50;92.20;;;;;;6134380;23;20503;-80
2022/01/01 02:05:38;;;;;;;14.65;8.88;;;12.50;92.20;;;;;;6137094;23;20005;-80
2022/01/01 02:08:06;;;;;;;14.65;9.35;;;12.50;92.20;;;;;;6136745;22;20013;-80
2022/01/01 02:10:33;;;;;;;11.45;8.18;;;12.50;92.20;;;;;;6113111;23;20009;-80
2022/01/01 02:13:05;;;;;;;11.85;7.53;;;12.50;92.20;;;;;;6139445;23;20080;-80
2022/01/01 02:18:15;;;;;;;12.30;7.32;;;12.50;92.30;;;;;;6138995;23;20018;-80
2022/01/01 02:20:43;;;;;;;15.70;9.18;;;12.50;92.30;;;;;;6135952;23;20487;-80
2022/01/01 02:23:13;;;;;;;11.15;7.60;;;12.40;92.30;;;;;;6113668;23;20017;-80
2022/01/01 02:25:40;;;;;;;10.55;7.07;;;12.50;92.30;;;;;;6137569;22;20002;-80
2022/01/01 02:28:06;;;;;;;12.48;7.80;;;12.50;92.30;;;;;;6137135;22;20005;-80
2022/01/01 02:30:32;;;;;;;11.00;7.40;;;12.60;92.30;;;;;;6138121;22;20014;-80
2022/01/01 02:32:58;;;;;;;11.80;7.55;;;12.50;92.30;;;;;;6139180;23;20048;-80
2022/01/01 02:35:24;;;;;;;12.02;7.35;;;12.40;92.30;;;;;;6114360;23;20005;-80
2022/01/01 02:37:50;;;;;;;11.00;7.57;;;12.50;92.30;;;;;;6141504;22;20477;-80
2022/01/01 02:40:16;;;;;;;11.35;7.70;;;12.50;92.30;;;;;;6140133;22;19994;-80
2022/01/01 02:42:43;;;;;;;13.18;8.10;;;12.50;92.30;;;;;;6116048;23;19998;-80
2022/01/01 02:45:11;;;;;;;11.65;7.85;;;12.50;92.30;;;;;;6115020;23;19990;-81
2022/01/01 02:47:38;;;;;;;11.40;7.72;;;12.50;92.30;;;;;;6142887;22;20048;-80
2022/01/01 02:50:04;;;;;;;11.45;7.47;;;12.50;92.40;;;;;;6141710;22;19998;-80
2022/01/01 02:52:31;;;;;;;11.25;7.43;;;12.40;92.30;;;;;;6140746;22;20041;-80
2022/01/01 02:54:57;;;;;;;9.73;7.07;;;12.50;92.30;;;;;;6141723;23;20061;-81
2022/01/01 02:57:23;;;;;;;10.68;6.80;;;12.50;92.30;;;;;;6143387;23;20025;-81
2022/01/01 02:59:49;;;;;;;9.88;6.18;;;12.50;92.30;;;;;;6142116;23;19993;-81
2022/01/01 03:02:15;;;;;;;9.07;5.63;;;12.50;92.30;;;;;;6145140;23;19997;-81
2022/01/01 03:04:41;;;;;;;10.38;6.28;;;12.40;92.30;;;;;;6119853;23;20029;-82
2022/01/01 03:07:07;;;;;;;11.35;5.57;;;12.50;92.40;;;;;;6144175;22;19999;-80
2022/01/01 03:09:34;;;;;;;8.77;5.22;;;12.50;92.40;;;;;;6142146;23;20058;-80
2022/01/01 03:12:07;;;;;;;11.50;5.60;;;12.40;92.30;;;;;;6140215;22;20041;-80
2022/01/01 03:14:33;;;;;;;7.63;5.30;;;12.50;92.40;;;;;;6141772;23;19989;-80
2022/01/01 03:16:59;;;;;;;7.90;4.65;;;12.40;92.40;;;;;;6116379;23;20058;-80
2022/01/01 03:19:25;;;;;;;10.77;4.88;;;12.50;92.40;;;;;;6139886;23;20368;-80
2022/01/01 03:21:51;;;;;;;6.38;4.15;;;12.40;92.40;;;;;;6142021;22;20005;-80
2022/01/01 03:24:17;;;;;;;6.15;3.97;;;12.40;92.40;;;;;;6141289;22;20303;-80
2022/01/01 03:26:44;;;;;;;6.68;4.07;;;12.40;92.50;;;;;;6141369;22;20016;-81
2022/01/01 03:29:10;;;;;;;5.90;3.75;;;12.40;92.50;;;;;;6141117;22;20010;-81
2022/01/01 03:31:36;;;;;;;6.43;4.25;;;12.40;92.50;;;;;;6116679;23;20051;-80
2022/01/01 03:34:02;;;;;;;7.07;4.03;;;12.40;92.50;;;;;;6140040;23;20022;-80
2022/01/01 03:36:28;;;;;;;8.85;4.65;;;12.40;92.50;;;;;;6138509;22;20053;-80
2022/01/01 03:38:54;;;;;;;6.72;4.18;;;12.50;92.50;;;;;;6141306;23;19983;-80
2022/01/01 03:41:20;;;;;;;8.95;4.22;;;12.40;92.50;;;;;;6119124;23;20098;-81
2022/01/01 03:43:47;;;;;;;8.63;4.82;;;12.40;92.50;;;;;;6118921;23;19987;-81
2022/01/01 03:46:13;;;;;;;6.90;4.00;;;12.40;92.50;;;;;;6142871;22;20010;-80
2022/01/01 03:48:38;;;;;;;6.55;3.92;;;12.40;92.50;;;;;;6144044;22;20024;-80
2022/01/01 03:51:04;;;;;;;7.45;4.10;;;12.50;92.50;;;;;;6119028;23;20017;-81
2022/01/01 03:53:30;;;;;;;6.43;3.30;;;12.40;92.50;;;;;;6141893;23;20058;-80
2022/01/01 03:55:56;;;;;;;5.63;3.22;;;12.40;92.50;;;;;;6166815;22;20438;-79
2022/01/01 03:58:21;;;;;;;7.30;3.65;;;12.40;92.50;;;;;;6143725;23;19998;-80
2022/01/01 04:00:47;;;;;;;6.60;3.28;;;12.40;92.50;;;;;;6143565;23;20049;-80
2022/01/01 04:03:17;;;;;;;5.63;2.97;;;12.40;92.50;;;;;;6119146;23;20073;-79
2022/01/01 04:05:43;;;;;;;5.88;3.53;;;12.40;92.80;;;;;;6143321;23;20022;-80
2022/01/01 04:08:10;;;;;;;5.82;3.05;;;12.40;92.50;;;;;;6119569;23;19982;-80
2022/01/01 04:10:40;;;;;;;6.63;3.20;;;12.50;92.50;;;;;;6119781;23;20018;-80
2022/01/01 04:13:08;;;;;;;5.97;3.25;;;12.40;92.50;;;;;;6145192;23;20013;-80
2022/01/01 04:15:35;;;;;;;4.63;2.60;;;12.50;92.50;;;;;;6121436;23;20417;-80
2022/01/01 04:18:08;;;;;;;5.97;2.85;;;12.40;92.50;;;;;;6147176;22;19998;-80
2022/01/01 04:20:34;;;;;;;5.13;2.60;;;12.40;92.50;;;;;;6146774;23;20006;-81
2022/01/01 04:23:00;;;;;;;4.28;2.47;;;12.50;92.50;;;;;;6145703;23;20002;-81
2022/01/01 04:25:27;;;;;;;4.68;2.53;;;12.40;92.50;;;;;;6147520;22;20377;-81
2022/01/01 04:27:55;;;;;;;4.20;2.55;;;12.50;92.50;;;;;;6146266;22;20021;-81
2022/01/01 04:30:21;;;;;;;4.72;2.40;;;12.40;92.50;;;;;;6098669;23;20036;-81
2022/01/01 04:32:47;;;;;;;4.22;2.33;;;12.50;92.50;;;;;;6146632;23;20010;-80
2022/01/01 04:35:14;;;;;;;4.63;2.10;;;12.50;92.60;;;;;;6123136;23;19997;-80
2022/01/01 04:37:40;;;;;;;4.95;2.33;;;12.50;92.50;;;;;;6147070;23;20002;-80
2022/01/01 04:40:07;;;;;;;4.53;2.42;;;12.50;92.50;;;;;;6146887;23;20001;-79
2022/01/01 04:42:33;;;;;;;5.07;2.33;;;12.50;92.50;;;;;;6146817;23;20018;-79
2022/01/01 04:44:59;;;;;;;3.42;2.10;;;12.50;92.50;;;;;;6147758;22;20013;-80
2022/01/01 04:47:25;;;;;;;5.38;2.25;;;12.50;92.50;;;;;;6146787;23;20002;-80
2022/01/01 04:49:51;;;;;;;4.68;2.20;;;12.60;92.50;;;;;;6147449;22;20005;-80
2022/01/01 04:52:17;;;;;;;4.68;2.10;;;12.60;92.50;;;;;;6147520;22;20105;-80
2022/01/01 04:54:44;;;;;;;5.68;2.05;;;12.50;92.50;;;;;;6146587;22;20053;-80
2022/01/01 04:57:11;;;;;;;4.10;2.20;;;12.50;92.50;;;;;;6147631;22;19998;-80
2022/01/01 04:59:37;;;;;;;4.60;1.90;;;12.50;92.50;;;;;;6146587;22;20021;-81
2022/01/01 05:02:04;;;;;;;4.07;2.42;;;12.60;92.50;;;;;;6122975;23;20065;-81
2022/01/01 05:04:30;;;;;;;4.72;2.05;;;12.60;92.50;;;;;;6146953;23;20000;-80
2022/01/01 05:06:56;;;;;;;3.20;1.85;;;12.60;92.50;;;;;;6148124;22;20009;-80
2022/01/01 05:09:22;;;;;;;4.05;1.90;;;12.50;92.50;;;;;;6147543;23;20018;-80
2022/01/01 05:11:48;;;;;;;3.00;1.80;;;12.60;92.50;;;;;;6147735;22;20002;-80
2022/01/01 05:14:15;;;;;;;3.58;1.70;;;12.60;92.50;;;;;;6146493;23;20052;-80
2022/01/01 05:16:41;;;;;;;3.95;1.63;;;12.50;92.50;;;;;;6097989;23;20772;-80
2022/01/01 05:19:08;;;;;;;2.60;1.80;;;12.60;92.50;;;;;;6146187;23;19990;-80
2022/01/01 05:21:35;;;;;;;4.20;1.50;;;12.60;92.50;;;;;;6121719;23;19998;-79
2022/01/01 05:24:03;;;;;;;2.53;1.38;;;12.60;92.50;;;;;;6146667;23;20006;-79
2022/01/01 05:26:30;;;;;;;2.45;1.40;;;12.70;92.50;;;;;;6146963;22;20048;-80
2022/01/01 05:28:56;;;;;;;3.28;1.67;;;12.60;92.50;;;;;;6146028;23;19996;-80
2022/01/01 05:31:21;;;;;;;3.08;1.55;;;12.60;92.50;;;;;;6119941;23;20329;-80
2022/01/01 05:33:49;;;;;;;4.03;1.63;;;12.60;92.50;;;;;;6128967;23;20014;-80
2022/01/01 05:36:15;;;;;;;3.13;1.73;;;12.60;92.50;;;;;;6119936;23;20013;-81
2022/01/01 05:38:42;;;;;;;3.13;1.60;;;12.70;92.60;;;;;;6095675;23;19998;-80
2022/01/01 05:41:08;;;;;;;2.80;1.30;;;12.60;92.50;;;;;;6121721;22;20055;-80
2022/01/01 05:43:34;;;;;;;2.45;1.20;;;12.70;92.60;;;;;;6095289;23;20377;-81
2022/01/01 05:46:00;;;;;;;2.20;1.40;;;12.60;92.60;;;;;;6121981;22;20010;-81
2022/01/01 05:48:26;;;;;;;2.63;1.58;;;12.60;92.60;;;;;;6120240;23;20098;-80
2022/01/01 05:50:52;;;;;;;2.70;1.60;;;12.60;92.60;;;;;;6120015;23;20338;-80
2022/01/01 05:53:19;;;;;;;3.60;1.50;;;12.60;92.60;;;;;;6121252;23;20010;-81
2022/01/01 05:55:45;;;;;;;3.78;1.45;;;12.60;92.60;;;;;;6119874;23;20047;-81
2022/01/01 05:58:11;;;;;;;2.55;1.48;;;12.60;92.60;;;;;;6119629;23;20002;-81
2022/01/01 06:00:37;;;;;;;2.05;1.10;;;12.60;92.60;;;;;;6119997;23;20483;-81
2022/01/01 06:03:03;;;;;;;2.83;1.23;;;12.60;92.60;;;;;;6119525;23;20066;-81
2022/01/01 06:05:30;;;;;;;2.28;1.20;;;12.60;92.60;;;;;;6119165;23;20013;-81
2022/01/01 06:07:57;;;;;;;2.03;1.35;;;12.60;92.60;;;;;;6119462;22;20017;-81
2022/01/01 06:10:24;;;;;;;3.30;1.10;;;12.60;92.60;;;;;;6092825;23;20010;-81
2022/01/01 06:12:51;;;;;;;3.00;1.40;;;12.50;92.60;;;;;;6095079;23;20014;-81
2022/01/01 06:15:17;;;;;;;2.65;1.35;;;12.50;92.60;;;;;;6121213;22;20016;-81
2022/01/01 06:17:43;;;;;;;4.13;1.25;;;12.50;92.60;;;;;;6118563;23;20010;-81
2022/01/01 06:20:10;;;;;;;3.17;1.38;;;12.50;92.60;;;;;;6118730;23;19999;-81
2022/01/01 06:22:35;;;;;;;3.00;1.48;;;12.50;92.60;;;;;;6120405;22;20089;-81
2022/01/01 06:25:02;;;;;;;2.33;1.42;;;12.50;92.60;;;;;;6119342;23;20034;-81
2022/01/01 06:27:27;;;;;;;3.25;1.50;;;12.60;92.70;;;;;;6120258;22;20029;-81
2022/01/01 06:29:53;;;;;;;3.90;1.33;;;12.50;92.60;;;;;;6118538;22;20028;-81
2022/01/01 06:32:19;;;;;;;2.65;1.30;;;12.60;92.60;;;;;;6119929;22;20021;-82
2022/01/01 06:34:44;;;;;;;3.13;1.25;;;12.60;92.60;;;;;;6119048;22;19998;-81
2022/01/01 06:37:10;;;;;;;2.65;1.52;;;12.60;92.60;;;;;;6118691;23;20024;-81
2022/01/01 06:39:36;;;;;;;2.03;1.30;;;12.50;92.60;;;;;;6094345;23;20005;-82
2022/01/01 06:42:02;;;;;;;2.78;1.58;;;12.60;92.60;;;;;;6119214;23;20005;-81
2022/01/01 06:44:28;;;;;;;2.42;1.35;;;12.60;92.50;;;;;;6118562;22;20025;-81
2022/01/01 06:46:53;;;;;;;2.50;1.40;;;12.50;92.50;;;;;;6118139;22;20493;-81
2022/01/01 06:49:20;;;;;;;2.83;1.30;;;12.60;92.50;;;;;;6118984;23;20022;-81
2022/01/01 06:51:45;;;;;;;2.45;1.35;;;12.50;92.50;;;;;;6118926;23;20002;-81
2022/01/01 06:54:11;;;;;;;2.35;1.33;;;12.50;92.50;;;;;;6096068;23;20449;-81
2022/01/01 06:56:37;;;;;;;2.88;1.55;;;12.40;92.50;;;;;;6120788;22;20017;-81
2022/01/01 06:59:03;;;;;;;3.25;1.30;;;12.40;92.70;;;;;;6095255;23;20025;-81
2022/01/01 07:01:29;;;;;;;2.58;1.33;;;12.30;92.60;;;;;;6119755;23;20010;-81
2022/01/01 07:03:56;;;;;;;1.85;1.10;;;12.30;92.60;;;;;;6094797;23;20040;-81
2022/01/01 07:06:22;;;;;;;2.50;1.27;;;12.30;92.70;;;;;;6094593;23;20021;-81
2022/01/01 07:08:48;;;;;;;1.83;1.20;;;12.30;92.70;;;;;;6118772;23;20422;-81
2022/01/01 07:11:14;;;;;;;1.98;1.38;;;12.30;92.60;;;;;;6094722;23;20013;-81
2022/01/01 07:13:39;;;;;;;2.13;1.10;;;12.20;92.70;;;;;;6094927;22;20017;-81
2022/01/01 07:16:06;;;;;;;3.00;1.45;;;12.30;92.80;;;;;;6118814;22;20002;-81
2022/01/01 07:18:32;;;;;;;1.80;1.20;;;12.10;92.70;;;;;;6095209;23;20437;-81
2022/01/01 07:20:58;;;;;;;2.75;1.10;;;12.10;92.80;;;;;;6118663;23;20002;-81
2022/01/01 07:23:23;;;;;;;1.63;1.10;;;12.00;92.80;;;;;;6094710;23;20456;-81
2022/01/01 07:25:49;;;;;;;2.78;1.00;;;12.10;92.80;;;;;;6094932;23;20330;-81
2022/01/01 07:28:16;;;;;;;3.67;1.25;;;12.10;92.80;;;;;;6095439;23;20006;-81
2022/01/01 07:30:43;;;;;;;2.10;1.27;;;12.00;92.80;;;;;;6095069;23;20006;-81
2022/01/01 07:33:12;;;;;;;2.70;1.10;;;12.10;92.80;;;;;;6094603;23;20049;-81
2022/01/01 07:35:39;;;;;;;2.25;1.15;;;12.10;92.80;;;;;;6119421;22;19998;-81
2022/01/01 07:38:05;;;;;;;2.28;1.10;;;12.10;92.80;;;;;;6119661;23;20350;-81
2022/01/01 07:40:32;;;;;;;2.53;1.30;;;12.10;92.70;;;;;;6118740;23;20422;-81
2022/01/01 07:42:58;;;;;;;1.85;1.20;;;12.10;92.60;;;;;;6118074;23;20059;-81
2022/01/01 07:45:24;;;;;;;3.35;1.35;;;12.10;92.60;;;;;;6094795;23;20013;-81
2022/01/01 07:47:50;;;;;;;2.53;1.35;;;12.10;92.60;;;;;;6095550;23;20010;-80
2022/01/01 07:50:16;;;;;;;2.13;1.20;;;12.10;92.60;;;;;;6095577;23;20326;-81
2022/01/01 07:52:51;;;;;;;3.72;1.40;;;12.10;92.60;;;;;;6121704;22;20018;-81
2022/01/01 07:55:16;;;;;;;3.47;1.40;;;12.10;92.60;;;;;;6097439;23;20002;-81
2022/01/01 07:57:42;;;;;;;2.92;1.38;;;12.00;92.60;;;;;;6119873;23;20097;-80
2022/01/01 08:00:08;;;;;;;1.95;1.08;;;12.00;92.60;;;;;;6120412;23;20068;-80
2022/01/01 08:02:42;;;;;;;1.98;1.15;;;12.10;92.60;;;;;;6095891;23;20013;-80
2022/01/01 08:05:08;;;;;;;1.50;1.10;;;12.00;92.60;;;;;;6095555;23;20418;-81
2022/01/01 08:07:34;;;;;;;2.17;1.00;;;12.00;92.50;;;;;;6071767;23;20038;-81
2022/01/01 08:10:00;;;;;;;2.05;1.10;;;12.10;92.50;;;;;;6119666;23;20006;-82
2022/01/01 08:12:25;;;;;;;2.97;1.30;;;12.10;92.50;;;;;;6121223;22;20333;-82
2022/01/01 08:14:54;;;;;;;1.60;0.98;;;12.00;92.50;;;;;;6119900;22;20006;-81
2022/01/01 08:17:20;;;;;;;2.40;1.10;;;12.00;92.50;;;;;;6121710;22;20006;-82
2022/01/01 08:19:46;;;;;;;1.60;1.00;;;12.00;92.50;;;;;;6119326;23;20073;-82
2022/01/01 08:22:13;;;;;;;2.20;1.10;;;12.00;92.50;;;;;;6120165;23;20147;-82
2022/01/01 08:24:39;;;;;;;1.60;0.80;;;12.00;92.50;;;;;;6121801;22;20422;-81
2022/01/01 08:27:05;;;;;;;1.75;1.08;;;12.00;92.50;;;;;;6095558;23;19998;-82
2022/01/01 08:29:31;;;;;;;2.45;1.00;;;12.00;92.60;;;;;;6095911;23;20471;-82
2022/01/01 08:31:57;;;;;;;2.05;1.00;;;12.00;92.50;;;;;;6119638;23;20045;-81
2022/01/01 08:34:24;;;;;;;1.10;0.95;;;12.00;92.50;;;;;;6119302;23;20337;-81
2022/01/01 08:36:50;;;;;;;1.75;0.82;;;12.00;92.50;;;;;;6095938;23;20059;-81
2022/01/01 08:39:16;;;;;;;1.15;0.80;;;12.10;92.50;;;;;;6095363;23;20439;-81
2022/01/01 08:41:46;;;;;;;2.00;1.10;;;12.20;92.40;;;;;;6118736;23;20037;-81
2022/01/01 08:44:12;;;;;;;1.45;0.93;;;12.20;92.40;;;;;;6119043;23;20342;-82
2022/01/01 08:46:38;;;;;;;1.08;0.80;;;12.20;92.30;;;;;;6070754;23;20006;-81
2022/01/01 08:49:05;;;;;;;3.05;0.93;;;12.30;92.30;;;;;;6119537;23;20310;-82
2022/01/01 08:51:33;;;;;;;1.33;0.82;;;12.40;92.30;;;;;;6120456;23;20009;-81
2022/01/01 08:53:59;;;;;;;2.15;0.88;;;12.40;92.20;;;;;;6118831;23;20010;-82
2022/01/01 08:56:25;;;;;;;2.53;1.00;;;12.40;92.20;;;;;;6121237;22;20009;-81
2022/01/01 08:58:51;;;;;;;1.23;0.90;;;12.40;92.10;;;;;;6095182;23;20334;-82
2022/01/01 09:01:17;;;;;;;1.73;0.82;;;12.50;92.10;;;;;;6120229;22;20002;-82
2022/01/01 09:03:44;;;;;;;2.45;1.02;;;12.50;92.10;;;;;;6109134;23;20009;-81
2022/01/01 09:06:10;;;;;;;2.40;1.10;;;12.50;92.10;;;;;;6115927;22;20016;-81
2022/01/01 09:08:40;;;;;;;1.95;0.90;;;12.60;92.10;;;;;;6113358;22;20002;-81
2022/01/01 09:11:06;;;;;;;2.03;1.00;;;12.50;92.10;;;;;;6131246;22;20067;-81
2022/01/01 09:13:33;;;;;;;1.10;0.75;;;12.60;92.00;;;;;;6070622;22;20053;-82
2022/01/01 09:15:59;;;;;;;1.20;0.90;;;12.60;92.00;;;;;;6120862;22;20025;-82
2022/01/01 09:18:25;;;;;;;1.52;1.00;;;12.60;92.00;;;;;;6120482;23;20002;-81
2022/01/01 09:20:51;;;;;;;3.25;0.95;;;12.60;91.90;;;;;;6119221;23;20024;-81
2022/01/01 09:23:18;;;;;;;2.33;0.90;;;12.70;91.90;;;;;;6071129;23;20014;-81
2022/01/01 09:25:44;;;;;;;1.20;0.77;;;12.70;92.20;;;;;;6095452;23;20081;-81
2022/01/01 09:28:10;;;;;;;2.38;1.05;;;12.70;91.80;;;;;;6095105;23;20041;-81
2022/01/01 09:30:35;;;;;;;2.20;1.10;;;12.80;91.80;;;;;;6120128;23;20024;-81
2022/01/01 09:33:02;;;;;;;1.73;1.00;;;12.80;91.80;;;;;;6119162;23;20018;-81
2022/01/01 09:35:28;;;;;;;1.88;0.98;;;12.90;91.80;;;;;;6118899;23;20013;-81
2022/01/01 09:37:54;;;;;;;2.17;1.00;;;12.90;91.70;;;;;;6118851;23;20006;-81
2022/01/01 09:40:19;;;;;;;2.60;0.95;;;12.90;91.70;;;;;;6120481;22;20422;-81
2022/01/01 09:42:46;;;;;;;1.13;0.88;;;12.90;91.70;;;;;;6119143;23;20441;-82
2022/01/01 09:45:13;;;;;;;2.83;1.20;;;13.00;91.70;;;;;;6118827;23;20012;-81
2022/01/01 09:47:38;;;;;;;1.83;1.05;;;13.00;91.60;;;;;;6094391;23;20017;-81
2022/01/01 09:50:07;;;;;;;1.75;1.00;;;13.00;91.60;;;;;;6119220;23;20002;-82
2022/01/01 09:52:33;;;;;;;1.50;0.70;;;12.90;91.60;;;;;;6094402;23;20191;-81
2022/01/01 09:54:59;;;;;;;0.85;0.70;;;13.00;91.60;;;;;;6118773;23;20010;-81
2022/01/01 09:57:25;;;;;;;2.80;0.82;;;13.00;91.60;;;;;;6094238;23;20040;-81
2022/01/01 09:59:51;;;;;;;1.50;1.08;;;12.90;91.60;;;;;;6094370;23;20014;-81
2022/01/01 10:02:17;;;;;;;2.78;1.30;;;13.00;91.60;;;;;;6094688;23;20040;-82
2022/01/01 10:04:46;;;;;;;1.65;1.15;;;13.00;91.60;;;;;;6119054;22;20013;-82
2022/01/01 10:07:12;;;;;;;2.95;1.00;;;13.00;91.60;;;;;;6118759;23;20389;-81
2022/01/01 10:09:39;;;;;;;2.38;1.10;;;13.10;91.80;;;;;;6094678;23;20006;-81
2022/01/01 10:12:06;;;;;;;2.92;1.10;;;13.10;91.60;;;;;;6094585;23;20013;-82
2022/01/01 10:14:35;;;;;;;2.80;1.20;;;13.10;91.50;;;;;;6094689;23;20092;-81
2022/01/01 10:17:19;;;;;;;2.13;1.30;;;13.00;91.50;;;;;;6094549;23;20365;-82
2022/01/01 10:19:47;;;;;;;2.67;1.08;;;13.10;91.50;;;;;;6074029;23;20051;-81
2022/01/01 10:22:14;;;;;;;2.05;1.05;;;13.10;91.50;;;;;;6118539;23;20498;-82
2022/01/01 10:29:59;;;;;;;1.40;0.88;;;13.20;91.50;;;;;;6119430;22;20022;-81
2022/01/01 10:32:25;;;;;;;1.38;0.90;;;13.20;91.50;;;;;;6119880;23;20021;-82
2022/01/01 10:34:51;;;;;;;2.25;1.20;;;13.20;91.50;;;;;;6120849;22;20410;-82
2022/01/01 10:37:17;;;;;;;1.90;1.20;;;13.30;91.50;;;;;;6118838;23;20389;-83
2022/01/01 10:39:51;;;;;;;1.90;1.10;;;13.30;91.40;;;;;;6118990;23;20014;-83
2022/01/01 10:42:18;;;;;;;1.67;1.10;;;13.30;91.40;;;;;;6094243;23;20121;-82
2022/01/01 10:44:52;;;;;;;2.50;1.30;;;13.30;91.30;;;;;;6119000;23;20048;-82
2022/01/01 10:47:27;;;;;;;2.30;1.38;;;13.30;91.30;;;;;;6119998;22;20007;-82
2022/01/01 10:52:33;;;;;;;2.38;1.10;;;13.40;91.30;;;;;;6115185;23;20053;-82
2022/01/01 10:55:06;;;;;;;3.85;1.23;;;13.40;91.30;;;;;;6118860;23;20010;-82
2022/01/01 10:57:35;;;;;;;2.67;1.33;;;13.40;91.30;;;;;;6118125;23;20002;-82
2022/01/01 11:00:20;;;;;;;2.15;1.20;;;13.40;91.30;;;;;;6094751;23;20002;-82
2022/01/01 11:02:52;;;;;;;1.73;1.25;;;13.40;91.30;;;;;;6094404;23;20045;-82
2022/01/01 11:05:29;;;;;;;2.72;1.20;;;13.40;91.20;;;;;;6118241;23;20084;-82
2022/01/01 11:07:56;;;;;;;2.10;1.20;;;13.50;91.30;;;;;;6103442;23;20026;-82
2022/01/01 11:10:23;;;;;;;2.78;1.08;;;13.50;91.20;;;;;;6119429;22;20493;-82
2022/01/01 11:12:50;;;;;;;2.00;1.45;;;13.60;91.20;;;;;;6117277;23;20017;-82
2022/01/01 11:15:16;;;;;;;1.85;0.90;;;13.50;91.20;;;;;;6119454;22;20018;-82
2022/01/01 11:17:43;;;;;;;2.50;1.30;;;13.60;91.20;;;;;;6118686;23;20032;-82
2022/01/01 11:20:11;;;;;;;3.05;1.05;;;13.60;91.10;;;;;;6093729;23;20021;-82
2022/01/01 11:22:37;;;;;;;1.38;1.05;;;13.60;91.10;;;;;;6119459;23;20071;-82
2022/01/01 11:25:04;;;;;;;2.22;1.33;;;13.60;91.10;;;;;;6117590;23;20018;-80
2022/01/01 11:27:31;;;;;;;1.65;0.98;;;13.60;91.10;;;;;;6119693;23;20464;-81
2022/01/01 11:30:07;;;;;;;1.52;1.10;;;13.70;91.10;;;;;;6118294;23;20426;-85
2022/01/01 11:32:48;;;;;;;1.33;1.00;;;13.70;91.10;;;;;;6117045;22;20053;-80
2022/01/01 11:35:27;;;;;;;1.60;1.15;;;13.60;91.10;;;;;;6119755;22;20063;-83
2022/01/01 11:38:01;;;;;;;2.20;1.25;;;13.70;91.10;;;;;;6118051;23;20009;-81
2022/01/01 11:40:33;;;;;;;1.50;1.08;;;13.70;91.10;;;;;;6118931;23;20068;-81
2022/01/01 11:43:00;;;;;;;1.90;1.10;;;13.80;91.10;;;;;;6116968;23;20060;-82
2022/01/01 11:45:45;;;;;;;1.13;0.95;;;13.70;91.10;;;;;;6119239;23;20060;-82
2022/01/01 11:48:30;;;;;;;1.98;0.95;;;13.80;91.10;;;;;;6093108;23;20014;-82
2022/01/01 11:50:56;;;;;;;1.95;1.10;;;13.80;91.00;;;;;;6118301;23;20006;-82
2022/01/01 11:53:37;;;;;;;1.30;1.00;;;13.90;91.10;;;;;;6117246;23;20021;-82
2022/01/01 11:56:11;;;;;;;1.23;0.90;;;13.80;91.00;;;;;;6117090;23;20442;-82
2022/01/01 11:58:51;;;;;;;1.50;1.00;;;13.90;91.10;;;;;;6118756;22;20042;-82
2022/01/01 12:01:19;;;;;;;1.57;0.90;;;13.90;91.10;;;;;;6116863;22;20021;-83
2022/01/01 12:03:54;;;;;;;1.20;0.85;;;13.80;91.00;;;;;;6092842;23;20472;-82
2022/01/01 12:06:20;;;;;;;1.90;1.00;;;13.90;91.00;;;;;;6116998;23;20438;-82
2022/01/01 12:08:49;;;;;;;1.58;1.02;;;13.90;91.00;;;;;;6118546;22;20033;-82
2022/01/01 12:11:32;;;;;;;1.63;0.90;;;13.90;91.00;;;;;;6117599;22;20014;-82
2022/01/01 12:14:00;;;;;;;2.45;0.80;;;14.00;90.90;;;;;;6117293;23;20311;-82
2022/01/01 12:16:27;;;;;;;2.42;1.10;;;14.00;90.90;;;;;;6117712;22;20009;-83
2022/01/01 12:19:03;;;;;;;1.73;0.90;;;14.00;90.90;;;;;;6116920;22;20014;-82
2022/01/01 12:21:39;;;;;;;1.73;1.00;;;14.00;90.90;;;;;;6117374;23;20096;-82
2022/01/01 12:24:08;;;;;;;1.63;1.20;;;14.00;90.90;;;;;;6092713;23;20010;-82
2022/01/01 12:26:35;;;;;;;1.65;0.90;;;14.10;90.90;;;;;;6118303;23;20041;-82
2022/01/01 12:29:05;;;;;;;1.77;0.90;;;14.10;90.90;;;;;;6117327;23;20006;-83
2022/01/01 12:31:31;;;;;;;1.40;0.90;;;14.10;90.80;;;;;;6094351;23;20012;-83
2022/01/01 12:34:00;;;;;;;2.47;1.27;;;14.20;90.80;;;;;;6118748;22;20456;-83
2022/01/01 12:36:29;;;;;;;2.20;1.30;;;14.20;90.70;;;;;;6118663;23;20002;-79
2022/01/01 12:38:58;;;;;;;3.33;1.25;;;14.30;90.70;;;;;;6120181;22;20030;-79
2022/01/01 12:41:33;;;;;;;1.70;1.00;;;14.30;90.70;;;;;;6118468;23;20002;-80
2022/01/01 12:44:02;;;;;;;1.70;1.10;;;14.30;90.60;;;;;;6121059;23;20012;-79
2022/01/01 12:46:31;;;;;;;1.45;1.08;;;14.40;90.60;;;;;;6119118;23;20042;-80
2022/01/01 12:49:00;;;;;;;1.92;1.10;;;14.30;90.60;;;;;;6094243;23;20366;-80
2022/01/01 12:51:28;;;;;;;0.75;0.75;;;14.30;90.60;;;;;;6118415;23;20022;-80
2022/01/01 12:53:56;;;;;;;1.55;0.90;;;14.40;90.60;;;;;;6119944;22;20091;-80
2022/01/01 12:56:22;;;;;;;1.55;0.75;;;14.30;90.60;;;;;;6120597;22;20016;-80
2022/01/01 12:58:52;;;;;;;1.48;0.93;;;14.40;90.60;;;;;;6120215;22;20038;-80